Time;durP1;ratioP1;P1;durP2;ratioP2;P2;SDS_P1;SDS_P2;PMS_P1;PMS_P2;Temp;Humidity;BMP_temperature;BMP_pressure;BME280_temperature;BME280_humidity;BME280_pressure;Samples;Min_cycle;Max_cycle;Signal;HPM_P1;HPM_P2
2021/08/14 00:00:52;;;;;;;7.50;6.90;;;24.20;42.20;;;;;;5031212;28;20208;-61
2021/08/14 00:03:18;;;;;;;7.90;7.03;;;24.20;42.10;;;;;;5031079;28;20177;-62
2021/08/14 00:05:43;;;;;;;8.30;7.70;;;24.20;42.10;;;;;;5031043;28;20165;-61
2021/08/14 00:08:09;;;;;;;7.60;7.00;;;24.20;42.20;;;;;;5031077;28;20671;-61
2021/08/14 00:10:34;;;;;;;8.17;7.57;;;24.20;42.20;;;;;;5031043;28;20173;-61
2021/08/14 00:13:00;;;;;;;8.77;7.93;;;24.20;42.20;;;;;;5031023;28;20169;-61
2021/08/14 00:15:25;;;;;;;7.87;7.27;;;24.20;42.20;;;;;;5030926;28;20181;-61
2021/08/14 00:17:51;;;;;;;8.20;7.60;;;24.20;42.20;;;;;;5030856;28;20613;-61
2021/08/14 00:20:16;;;;;;;8.17;7.40;;;24.20;42.20;;;;;;5031020;28;20205;-61
2021/08/14 00:22:42;;;;;;;8.40;7.67;;;24.20;42.20;;;;;;5031958;28;20176;-62
2021/08/14 00:25:09;;;;;;;9.23;7.77;;;24.20;42.30;;;;;;5034500;28;20183;-62
2021/08/14 00:27:35;;;;;;;8.83;8.03;;;24.20;42.20;;;;;;5034518;28;20184;-62
2021/08/14 00:30:00;;;;;;;8.07;7.53;;;24.20;42.20;;;;;;5034839;28;20499;-62
2021/08/14 00:32:26;;;;;;;7.90;7.20;;;24.20;42.20;;;;;;5034536;28;20411;-62
2021/08/14 00:34:51;;;;;;;7.93;7.33;;;24.20;42.20;;;;;;5034530;28;20165;-61
2021/08/14 00:37:17;;;;;;;8.27;7.57;;;24.20;42.20;;;;;;5034604;28;20280;-61
2021/08/14 00:39:42;;;;;;;8.33;7.63;;;24.20;42.10;;;;;;5034523;28;20173;-62
2021/08/14 00:42:08;;;;;;;8.43;7.73;;;24.10;42.00;;;;;;5034571;28;20204;-62
2021/08/14 00:44:34;;;;;;;8.03;7.33;;;24.20;42.00;;;;;;5034368;28;20177;-62
2021/08/14 00:47:02;;;;;;;8.50;7.70;;;24.20;41.80;;;;;;5034171;28;20184;-62
2021/08/14 00:49:28;;;;;;;8.27;7.53;;;24.20;41.70;;;;;;5034133;28;20203;-62
2021/08/14 00:51:54;;;;;;;7.80;7.27;;;24.20;41.70;;;;;;5034400;28;20439;-61
2021/08/14 00:54:19;;;;;;;8.60;7.90;;;24.20;41.60;;;;;;5034231;28;20175;-62
2021/08/14 00:56:45;;;;;;;8.37;7.57;;;24.20;41.50;;;;;;5034102;28;20271;-62
2021/08/14 00:59:11;;;;;;;7.43;6.83;;;24.10;41.40;;;;;;5034061;28;20195;-61
2021/08/14 01:01:36;;;;;;;8.60;7.90;;;24.20;41.40;;;;;;5034059;28;20451;-61
2021/08/14 01:04:02;;;;;;;8.30;7.70;;;24.10;41.30;;;;;;5034113;28;20173;-61
2021/08/14 01:06:28;;;;;;;8.13;7.47;;;24.10;41.30;;;;;;5033630;28;20675;-62
2021/08/14 01:08:55;;;;;;;7.43;6.93;;;24.20;41.40;;;;;;5033707;28;20403;-62
2021/08/14 01:11:21;;;;;;;8.70;8.10;;;24.10;41.40;;;;;;5033897;28;20177;-62
2021/08/14 01:13:47;;;;;;;7.90;7.40;;;24.10;41.40;;;;;;5033639;28;20506;-62
2021/08/14 01:16:13;;;;;;;7.63;7.03;;;24.10;41.40;;;;;;5033335;28;20514;-62
2021/08/14 01:18:44;;;;;;;7.87;7.33;;;24.10;41.40;;;;;;5033546;28;20183;-62
2021/08/14 01:21:10;;;;;;;8.90;8.27;;;24.10;41.40;;;;;;5033818;28;20291;-61
2021/08/14 01:23:37;;;;;;;8.20;7.40;;;24.10;41.50;;;;;;5033725;28;20491;-62
2021/08/14 01:26:10;;;;;;;8.23;7.50;;;24.10;41.60;;;;;;5033478;28;20449;-62
2021/08/14 01:28:37;;;;;;;7.73;7.03;;;24.20;41.80;;;;;;5033482;28;20404;-62
2021/08/14 01:31:08;;;;;;;7.60;7.00;;;24.10;41.80;;;;;;5033575;28;20419;-62
2021/08/14 01:33:36;;;;;;;8.00;7.30;;;24.20;42.00;;;;;;5033392;28;20415;-61
2021/08/14 01:36:06;;;;;;;7.80;7.20;;;24.10;41.90;;;;;;5032748;28;20470;-62
2021/08/14 01:38:31;;;;;;;7.90;7.30;;;24.10;41.90;;;;;;5033478;28;20412;-62
2021/08/14 01:40:57;;;;;;;7.50;7.00;;;24.10;41.90;;;;;;5033489;28;20680;-61
2021/08/14 01:43:22;;;;;;;7.87;7.30;;;24.10;42.00;;;;;;5033271;28;20522;-62
2021/08/14 01:45:48;;;;;;;7.17;6.67;;;24.10;41.90;;;;;;5033213;28;20184;-62
2021/08/14 01:48:15;;;;;;;7.77;7.17;;;24.10;41.90;;;;;;5033533;28;20179;-62
2021/08/14 01:50:40;;;;;;;8.70;8.00;;;24.10;41.80;;;;;;5033287;28;20461;-61
2021/08/14 01:53:06;;;;;;;8.00;7.20;;;24.10;41.90;;;;;;5033330;28;20438;-61
2021/08/14 01:55:31;;;;;;;7.77;7.23;;;24.10;41.80;;;;;;5032940;28;20181;-61
2021/08/14 01:57:57;;;;;;;8.07;7.47;;;24.10;41.90;;;;;;5032946;28;20223;-62
2021/08/14 02:00:23;;;;;;;8.30;7.50;;;24.20;42.00;;;;;;5032947;28;20300;-61
2021/08/14 02:02:48;;;;;;;8.07;7.40;;;24.10;41.90;;;;;;5033186;28;20588;-62
2021/08/14 02:05:14;;;;;;;7.73;7.13;;;24.10;42.00;;;;;;5032827;28;20172;-62
2021/08/14 02:07:40;;;;;;;8.60;7.90;;;24.10;42.00;;;;;;5032864;28;20193;-62
2021/08/14 02:10:06;;;;;;;8.70;7.90;;;24.10;41.90;;;;;;5032865;28;20247;-62
2021/08/14 02:12:31;;;;;;;7.40;6.70;;;24.10;41.80;;;;;;5032804;28;20171;-62
2021/08/14 02:14:57;;;;;;;7.83;7.23;;;24.10;41.90;;;;;;5031231;28;20427;-61
2021/08/14 02:17:22;;;;;;;7.23;6.73;;;24.10;41.90;;;;;;5032789;28;20295;-62
2021/08/14 02:19:48;;;;;;;8.17;7.57;;;24.10;42.00;;;;;;5032474;28;20251;-61
2021/08/14 02:22:13;;;;;;;7.93;7.23;;;24.10;41.90;;;;;;5032463;28;20606;-61
2021/08/14 02:24:39;;;;;;;9.03;8.13;;;24.10;41.90;;;;;;5032288;28;20180;-61
2021/08/14 02:27:04;;;;;;;8.20;7.50;;;24.10;41.90;;;;;;5032333;28;20188;-61
2021/08/14 02:29:32;;;;;;;8.47;7.77;;;24.10;41.90;;;;;;5032545;28;20196;-62
2021/08/14 02:31:57;;;;;;;8.33;7.67;;;24.10;41.80;;;;;;5032483;28;20521;-62
2021/08/14 02:34:22;;;;;;;8.20;7.60;;;24.10;41.80;;;;;;5032397;28;20413;-61
2021/08/14 02:36:48;;;;;;;8.67;8.07;;;24.10;41.80;;;;;;5032177;28;20234;-62
2021/08/14 02:39:14;;;;;;;8.73;7.90;;;24.10;41.80;;;;;;5032112;28;20183;-61
2021/08/14 02:41:39;;;;;;;8.30;7.50;;;24.10;41.80;;;;;;5032057;28;20571;-61
2021/08/14 02:44:05;;;;;;;7.63;7.13;;;24.10;41.90;;;;;;5032089;28;20183;-61
2021/08/14 02:46:30;;;;;;;8.70;8.00;;;24.10;41.90;;;;;;5030905;28;20200;-61
2021/08/14 02:48:56;;;;;;;7.80;7.20;;;24.10;42.00;;;;;;5032115;28;20168;-62
2021/08/14 02:51:21;;;;;;;7.30;6.80;;;24.10;42.00;;;;;;5032118;28;20644;-61
2021/08/14 02:53:47;;;;;;;7.77;7.20;;;24.10;42.00;;;;;;5032184;28;20181;-62
2021/08/14 02:56:13;;;;;;;8.77;7.97;;;24.10;42.00;;;;;;5031672;28;20211;-61
2021/08/14 02:58:38;;;;;;;8.10;7.53;;;24.10;41.90;;;;;;5031924;28;20192;-61
2021/08/14 03:01:04;;;;;;;7.87;7.30;;;24.10;41.90;;;;;;5031993;28;20339;-62
2021/08/14 03:03:29;;;;;;;8.20;7.57;;;24.10;41.80;;;;;;5032030;28;20255;-61
2021/08/14 03:05:54;;;;;;;9.37;8.57;;;24.10;41.80;;;;;;5031733;28;20180;-61
2021/08/14 03:08:20;;;;;;;8.00;7.40;;;24.10;41.70;;;;;;5032010;28;20563;-61
2021/08/14 03:10:45;;;;;;;8.47;7.77;;;24.10;41.70;;;;;;5031735;28;20179;-61
2021/08/14 03:13:13;;;;;;;8.50;7.80;;;24.10;41.60;;;;;;5032039;28;20196;-61
2021/08/14 03:15:38;;;;;;;8.63;7.83;;;24.10;41.60;;;;;;5031543;28;20259;-61
2021/08/14 03:18:04;;;;;;;8.00;7.40;;;24.10;41.60;;;;;;5031746;28;20467;-62
2021/08/14 03:20:30;;;;;;;8.50;7.70;;;24.10;41.60;;;;;;5031612;28;20200;-62
2021/08/14 03:22:55;;;;;;;7.30;6.80;;;24.10;41.50;;;;;;5031928;28;20183;-62
2021/08/14 03:25:21;;;;;;;8.87;8.17;;;24.10;41.50;;;;;;5031460;28;20698;-61
2021/08/14 03:27:47;;;;;;;8.13;7.53;;;24.10;41.50;;;;;;5031656;28;20659;-62
2021/08/14 03:30:17;;;;;;;8.90;8.30;;;24.10;41.60;;;;;;5031638;28;20415;-62
2021/08/14 03:32:43;;;;;;;8.47;7.73;;;24.10;41.60;;;;;;5031793;28;20276;-62
2021/08/14 03:35:10;;;;;;;7.97;7.20;;;24.10;41.70;;;;;;5031366;28;20443;-61
2021/08/14 03:37:35;;;;;;;8.37;7.67;;;24.10;41.80;;;;;;5031551;28;20463;-62
2021/08/14 03:40:01;;;;;;;8.50;7.80;;;24.10;41.80;;;;;;5031269;28;20480;-62
2021/08/14 03:42:26;;;;;;;8.00;7.40;;;24.10;41.90;;;;;;5031467;28;20180;-62
2021/08/14 03:44:53;;;;;;;8.57;7.87;;;24.10;42.00;;;;;;5031271;28;20794;-62
2021/08/14 03:47:18;;;;;;;8.23;7.60;;;24.10;41.90;;;;;;5031333;28;20899;-61
2021/08/14 03:49:44;;;;;;;8.00;7.40;;;24.10;41.90;;;;;;5031384;28;20411;-61
2021/08/14 03:52:09;;;;;;;9.20;7.67;;;24.10;41.90;;;;;;5031277;28;20180;-62
2021/08/14 03:54:35;;;;;;;7.40;6.70;;;24.10;41.80;;;;;;5031211;28;20204;-62
2021/08/14 03:57:00;;;;;;;8.00;7.30;;;24.10;41.80;;;;;;5031311;28;20235;-62
2021/08/14 03:59:26;;;;;;;9.53;8.53;;;24.10;41.80;;;;;;5035216;28;20239;-62
2021/08/14 04:01:51;;;;;;;8.03;7.33;;;24.10;41.70;;;;;;5035247;28;20659;-62
2021/08/14 04:04:17;;;;;;;7.80;7.10;;;24.10;41.70;;;;;;5035357;28;20181;-62
2021/08/14 04:06:42;;;;;;;7.73;7.17;;;24.10;41.70;;;;;;5035044;28;20192;-62
2021/08/14 04:09:08;;;;;;;8.60;7.90;;;24.10;41.80;;;;;;5035146;28;20175;-62
2021/08/14 04:11:33;;;;;;;7.93;7.37;;;24.10;41.70;;;;;;5035426;28;20639;-61
2021/08/14 04:13:59;;;;;;;8.27;7.53;;;24.10;41.80;;;;;;5035102;28;20173;-62
2021/08/14 04:16:24;;;;;;;6.97;6.37;;;24.10;41.80;;;;;;5034811;28;20706;-61
2021/08/14 04:18:50;;;;;;;7.50;6.90;;;24.10;41.90;;;;;;5035014;28;20188;-61
2021/08/14 04:21:15;;;;;;;9.10;7.50;;;24.10;41.90;;;;;;5034938;28;20725;-62
2021/08/14 04:23:41;;;;;;;8.83;8.00;;;24.10;41.90;;;;;;5034854;28;20295;-61
2021/08/14 04:26:06;;;;;;;8.43;7.73;;;24.10;41.80;;;;;;5034665;28;20568;-61
2021/08/14 04:28:32;;;;;;;8.33;7.63;;;24.10;41.70;;;;;;5034876;28;20179;-62
2021/08/14 04:30:57;;;;;;;8.03;7.23;;;24.10;41.80;;;;;;5034801;28;20238;-62
2021/08/14 04:33:23;;;;;;;8.10;7.50;;;24.00;41.70;;;;;;5034734;28;20173;-61
2021/08/14 04:35:49;;;;;;;7.50;6.90;;;24.00;41.70;;;;;;5034424;28;20169;-62
2021/08/14 04:38:15;;;;;;;8.73;7.93;;;24.00;41.60;;;;;;5034552;28;20192;-62
2021/08/14 04:40:40;;;;;;;8.23;7.63;;;24.00;41.60;;;;;;5034525;28;20458;-61
2021/08/14 04:43:06;;;;;;;7.20;6.60;;;24.10;42.40;;;;;;5034623;28;20181;-61
2021/08/14 04:45:31;;;;;;;7.67;6.93;;;24.00;41.60;;;;;;5034348;28;20259;-61
2021/08/14 04:47:57;;;;;;;7.77;7.07;;;24.00;41.60;;;;;;5034440;28;20712;-61
2021/08/14 04:50:22;;;;;;;7.83;7.30;;;24.00;41.60;;;;;;5034450;28;20181;-61
2021/08/14 04:52:48;;;;;;;7.60;7.00;;;24.00;41.60;;;;;;5034385;28;20176;-61
2021/08/14 04:55:13;;;;;;;8.53;7.83;;;24.00;41.60;;;;;;5034197;28;20181;-61
2021/08/14 04:57:39;;;;;;;8.30;7.67;;;24.00;41.70;;;;;;5034096;28;20208;-61
2021/08/14 05:00:05;;;;;;;7.33;6.83;;;24.10;41.80;;;;;;5034275;28;20179;-61
2021/08/14 05:02:31;;;;;;;8.20;7.60;;;24.00;41.60;;;;;;5034404;28;20172;-62
2021/08/14 05:04:57;;;;;;;8.20;7.60;;;24.00;41.70;;;;;;5034013;28;20779;-62
2021/08/14 05:07:22;;;;;;;8.77;8.00;;;24.00;41.70;;;;;;5034027;28;20197;-64
2021/08/14 05:09:49;;;;;;;8.67;7.87;;;24.00;41.70;;;;;;5032796;28;20188;-64
2021/08/14 05:12:15;;;;;;;7.37;6.57;;;24.00;41.50;;;;;;5034182;28;20215;-64
2021/08/14 05:14:40;;;;;;;8.07;7.23;;;24.00;41.60;;;;;;5033951;28;20443;-64
2021/08/14 05:17:06;;;;;;;8.60;7.80;;;24.00;41.60;;;;;;5032083;28;20210;-64
2021/08/14 05:19:31;;;;;;;8.70;7.90;;;24.00;41.50;;;;;;5033874;28;20207;-64
2021/08/14 05:21:57;;;;;;;10.13;8.40;;;24.00;41.30;;;;;;5033757;28;20610;-64
2021/08/14 05:24:23;;;;;;;8.47;7.80;;;24.00;40.80;;;;;;5033837;28;20180;-64
2021/08/14 05:26:48;;;;;;;8.10;7.43;;;24.00;40.50;;;;;;5033641;28;20473;-64
2021/08/14 05:29:14;;;;;;;8.77;8.10;;;23.90;40.40;;;;;;5033703;28;20172;-64
2021/08/14 05:31:39;;;;;;;10.43;9.40;;;23.90;40.40;;;;;;5033790;28;20230;-64
2021/08/14 05:34:05;;;;;;;8.73;7.93;;;23.90;40.50;;;;;;5033514;28;20180;-64
2021/08/14 05:36:33;;;;;;;8.07;7.47;;;23.90;40.50;;;;;;5023951;28;20209;-63
2021/08/14 05:38:58;;;;;;;8.83;8.10;;;23.90;40.60;;;;;;5013505;28;20427;-64
2021/08/14 05:41:24;;;;;;;8.50;7.80;;;23.90;40.60;;;;;;5013608;28;20460;-64
2021/08/14 05:43:50;;;;;;;8.97;8.23;;;23.90;40.60;;;;;;5013588;28;20177;-64
2021/08/14 05:46:15;;;;;;;8.67;7.97;;;23.90;40.40;;;;;;5013456;28;20181;-65
2021/08/14 05:48:41;;;;;;;9.27;7.80;;;23.90;40.90;;;;;;5013574;28;20174;-64
2021/08/14 05:51:09;;;;;;;9.37;8.37;;;23.90;40.10;;;;;;5013559;28;20186;-63
2021/08/14 05:53:34;;;;;;;9.70;8.90;;;23.90;40.10;;;;;;5013463;28;20181;-64
2021/08/14 05:56:00;;;;;;;8.53;7.93;;;23.90;40.20;;;;;;5013076;28;20418;-65
2021/08/14 05:58:25;;;;;;;8.30;7.70;;;23.80;40.30;;;;;;5013091;28;20283;-64
2021/08/14 06:00:51;;;;;;;8.50;7.83;;;23.90;40.40;;;;;;5013154;28;20201;-65
2021/08/14 06:03:16;;;;;;;7.87;7.27;;;23.80;40.30;;;;;;5013170;28;20212;-64
2021/08/14 06:05:45;;;;;;;8.30;7.70;;;23.80;40.40;;;;;;5012882;28;20173;-64
2021/08/14 06:08:11;;;;;;;9.03;8.23;;;23.80;40.50;;;;;;5012988;28;20663;-64
2021/08/14 06:10:36;;;;;;;9.10;8.20;;;23.90;40.60;;;;;;5013079;28;20419;-64
2021/08/14 06:13:02;;;;;;;8.63;8.03;;;23.80;40.60;;;;;;5013077;28;20602;-64
2021/08/14 06:15:27;;;;;;;9.33;8.43;;;23.80;40.50;;;;;;5012981;28;20199;-64
2021/08/14 06:17:53;;;;;;;9.27;8.37;;;23.90;40.70;;;;;;5012032;28;20201;-64
2021/08/14 06:20:19;;;;;;;9.23;8.53;;;23.80;40.70;;;;;;5010555;28;20216;-64
2021/08/14 06:22:44;;;;;;;10.90;8.93;;;23.90;40.60;;;;;;5012729;28;20205;-64
2021/08/14 06:25:11;;;;;;;8.70;8.00;;;23.90;40.50;;;;;;5012215;28;20170;-64
2021/08/14 06:27:37;;;;;;;8.83;8.13;;;23.90;40.40;;;;;;5013023;28;20197;-64
2021/08/14 06:30:04;;;;;;;8.87;8.17;;;23.80;40.40;;;;;;5012748;28;20447;-64
2021/08/14 06:32:29;;;;;;;8.63;7.80;;;23.90;40.50;;;;;;5012412;28;20176;-64
2021/08/14 06:34:55;;;;;;;8.10;7.50;;;23.80;40.50;;;;;;5012050;28;20417;-64
2021/08/14 06:37:20;;;;;;;10.20;9.30;;;23.80;40.50;;;;;;5010947;28;20185;-63
2021/08/14 06:39:46;;;;;;;9.63;8.80;;;23.80;40.70;;;;;;5011773;28;20260;-64
2021/08/14 06:42:11;;;;;;;8.47;7.87;;;23.80;40.70;;;;;;5012328;28;20208;-64
2021/08/14 06:44:37;;;;;;;9.47;8.40;;;23.80;40.80;;;;;;5012127;28;20545;-63
2021/08/14 06:47:03;;;;;;;8.67;7.97;;;23.80;41.00;;;;;;5012534;28;20239;-64
2021/08/14 06:49:29;;;;;;;9.07;8.33;;;23.80;41.00;;;;;;5012247;28;20169;-64
2021/08/14 06:51:55;;;;;;;9.07;8.20;;;23.80;41.00;;;;;;5012401;28;20418;-64
2021/08/14 06:54:20;;;;;;;9.57;8.77;;;23.80;40.90;;;;;;5012198;28;20177;-64
2021/08/14 06:56:46;;;;;;;9.70;8.80;;;23.80;41.00;;;;;;5012197;28;20203;-64
2021/08/14 06:59:11;;;;;;;9.40;8.50;;;23.80;41.10;;;;;;5011930;28;20613;-64
2021/08/14 07:01:38;;;;;;;8.83;8.13;;;23.80;41.10;;;;;;5012312;28;20229;-64
2021/08/14 07:04:04;;;;;;;9.57;8.43;;;23.90;41.20;;;;;;5011971;28;20804;-64
2021/08/14 07:06:29;;;;;;;9.10;8.30;;;23.90;41.20;;;;;;5011982;28;20204;-64
2021/08/14 07:08:55;;;;;;;8.80;8.00;;;23.90;41.10;;;;;;5011921;28;20209;-64
2021/08/14 07:11:21;;;;;;;9.43;8.33;;;23.90;41.20;;;;;;5012094;28;20216;-64
2021/08/14 07:13:47;;;;;;;9.10;8.30;;;24.00;41.20;;;;;;5012151;28;20177;-64
2021/08/14 07:16:13;;;;;;;9.23;8.63;;;24.00;41.20;;;;;;5011697;28;21218;-64
2021/08/14 07:18:39;;;;;;;9.83;8.83;;;24.00;41.20;;;;;;5011946;28;20503;-64
2021/08/14 07:21:05;;;;;;;9.40;8.70;;;24.00;41.30;;;;;;5011929;28;20216;-64
2021/08/14 07:23:30;;;;;;;9.83;8.93;;;24.10;41.40;;;;;;5012015;28;20181;-64
2021/08/14 07:25:56;;;;;;;10.60;9.57;;;24.10;41.50;;;;;;5011364;28;20415;-64
2021/08/14 07:28:21;;;;;;;9.10;8.30;;;24.10;42.20;;;;;;5011813;28;20216;-64
2021/08/14 07:30:48;;;;;;;9.67;8.67;;;24.20;41.60;;;;;;5011700;28;20169;-65
2021/08/14 07:33:14;;;;;;;10.07;9.27;;;24.20;41.50;;;;;;5013680;28;20184;-68
2021/08/14 07:35:40;;;;;;;8.83;8.10;;;24.30;41.50;;;;;;5015572;28;20519;-64
2021/08/14 07:38:05;;;;;;;8.40;7.60;;;24.30;41.70;;;;;;5014411;28;20522;-68
2021/08/14 07:40:31;;;;;;;9.37;8.57;;;24.30;41.50;;;;;;5014553;28;20671;-68
2021/08/14 07:42:57;;;;;;;11.53;9.20;;;24.30;41.50;;;;;;5015868;28;20181;-69
2021/08/14 07:45:24;;;;;;;9.37;8.53;;;24.40;41.60;;;;;;5029762;28;20217;-67
2021/08/14 07:47:50;;;;;;;9.60;8.80;;;24.30;41.40;;;;;;5055216;28;20434;-68
2021/08/14 07:50:26;;;;;;;9.10;8.37;;;24.40;41.80;;;;;;5055441;28;20395;-68
2021/08/14 07:52:53;;;;;;;10.73;9.53;;;24.40;41.90;;;;;;5055298;28;20472;-68
2021/08/14 07:55:19;;;;;;;9.80;8.73;;;24.50;41.90;;;;;;5036668;28;20439;-68
2021/08/14 07:57:45;;;;;;;10.83;9.40;;;24.50;41.80;;;;;;5015212;28;20443;-64
2021/08/14 08:00:13;;;;;;;9.97;8.97;;;24.50;41.90;;;;;;5015323;28;20408;-63
2021/08/14 08:02:39;;;;;;;10.70;9.80;;;24.50;42.20;;;;;;5015050;28;20558;-67
2021/08/14 08:05:07;;;;;;;10.20;9.20;;;24.50;42.10;;;;;;5014934;28;20411;-64
2021/08/14 08:07:33;;;;;;;9.80;9.07;;;24.60;42.20;;;;;;5015019;28;20432;-63
2021/08/14 08:09:59;;;;;;;10.23;9.30;;;24.60;42.20;;;;;;5015473;28;20415;-70
2021/08/14 08:12:24;;;;;;;10.70;9.00;;;24.70;42.20;;;;;;5051989;28;20724;-68
2021/08/14 08:14:50;;;;;;;9.40;8.53;;;24.70;42.30;;;;;;5054593;28;20414;-67
2021/08/14 08:17:16;;;;;;;10.10;9.40;;;24.70;42.20;;;;;;5054996;28;20258;-69
2021/08/14 08:19:42;;;;;;;10.40;9.60;;;24.70;42.20;;;;;;5045099;28;20424;-64
2021/08/14 08:22:07;;;;;;;9.97;9.10;;;24.80;42.10;;;;;;5034084;28;20682;-63
2021/08/14 08:24:33;;;;;;;9.97;8.93;;;24.80;42.00;;;;;;5033576;28;20168;-64
2021/08/14 08:26:59;;;;;;;9.90;9.00;;;24.80;42.00;;;;;;5034640;28;20300;-63
2021/08/14 08:29:24;;;;;;;12.40;10.10;;;24.80;42.10;;;;;;5032449;28;20510;-65
2021/08/14 08:31:50;;;;;;;10.30;9.40;;;24.80;42.00;;;;;;5034238;28;20223;-67
2021/08/14 08:34:16;;;;;;;10.17;9.17;;;24.80;41.90;;;;;;5034184;28;20320;-62
2021/08/14 08:36:41;;;;;;;9.67;8.67;;;24.80;42.00;;;;;;5033537;28;20196;-63
2021/08/14 08:39:07;;;;;;;10.57;9.57;;;24.70;41.90;;;;;;5030129;28;20979;-63
2021/08/14 08:41:33;;;;;;;10.37;9.07;;;24.80;42.10;;;;;;5019532;28;20252;-63
2021/08/14 08:43:59;;;;;;;12.93;10.80;;;24.70;41.90;;;;;;5024319;28;20596;-63
2021/08/14 08:46:27;;;;;;;18.30;10.57;;;24.70;41.90;;;;;;5032350;28;20208;-63
2021/08/14 08:48:52;;;;;;;11.27;10.07;;;24.70;41.90;;;;;;5034202;28;20230;-63
2021/08/14 08:51:24;;;;;;;16.27;11.00;;;24.70;41.90;;;;;;5034299;28;20419;-63
2021/08/14 08:53:50;;;;;;;17.27;11.53;;;24.70;41.90;;;;;;5034449;28;20212;-63
2021/08/14 08:56:15;;;;;;;17.40;11.37;;;24.60;41.80;;;;;;5033958;28;20459;-64
2021/08/14 08:58:41;;;;;;;13.40;11.30;;;24.70;41.90;;;;;;5034045;28;20431;-63
2021/08/14 09:01:07;;;;;;;12.87;10.53;;;24.60;41.80;;;;;;5030979;28;20623;-63
2021/08/14 09:03:32;;;;;;;12.37;11.07;;;24.70;41.90;;;;;;5028159;28;20172;-63
2021/08/14 09:05:58;;;;;;;14.30;11.13;;;24.70;41.90;;;;;;5021708;28;20173;-63
2021/08/14 09:08:23;;;;;;;15.60;10.93;;;24.70;42.00;;;;;;5012331;28;20180;-64
2021/08/14 09:10:50;;;;;;;18.37;11.53;;;24.60;41.80;;;;;;5013354;28;20643;-63
2021/08/14 09:13:20;;;;;;;12.07;10.57;;;24.60;41.80;;;;;;5013954;28;20243;-63
2021/08/14 09:15:47;;;;;;;12.90;10.60;;;24.60;41.90;;;;;;5013862;28;20429;-63
2021/08/14 09:18:15;;;;;;;13.77;12.10;;;24.60;41.80;;;;;;5014067;28;20743;-63
2021/08/14 09:20:52;;;;;;;13.70;11.37;;;24.60;41.90;;;;;;5013943;28;20483;-64
2021/08/14 09:23:18;;;;;;;12.30;11.03;;;24.60;41.90;;;;;;5014029;28;20404;-64
2021/08/14 09:25:52;;;;;;;14.03;11.07;;;24.60;41.80;;;;;;5013548;28;20416;-63
2021/08/14 09:28:29;;;;;;;11.30;10.03;;;24.60;41.80;;;;;;5013943;28;20878;-64
2021/08/14 09:30:56;;;;;;;13.07;10.10;;;24.60;41.80;;;;;;5013904;28;20416;-63
2021/08/14 09:33:30;;;;;;;16.20;11.23;;;24.60;41.80;;;;;;5012592;28;20447;-63
2021/08/14 09:36:00;;;;;;;14.23;10.30;;;24.60;41.70;;;;;;5013372;28;20955;-63
2021/08/14 09:38:46;;;;;;;11.57;10.27;;;24.60;41.70;;;;;;5013737;28;20444;-63
2021/08/14 09:41:17;;;;;;;11.93;10.83;;;24.60;41.70;;;;;;5013605;28;20491;-63
2021/08/14 09:43:45;;;;;;;10.80;9.90;;;24.60;41.70;;;;;;5013660;28;20408;-64
2021/08/14 09:46:11;;;;;;;10.67;9.60;;;24.60;41.70;;;;;;5013218;28;20529;-64
2021/08/14 09:48:38;;;;;;;14.63;11.47;;;24.60;41.70;;;;;;5013529;28;20930;-64
2021/08/14 09:51:05;;;;;;;12.50;10.73;;;24.60;41.70;;;;;;5013382;28;20675;-63
2021/08/14 09:53:31;;;;;;;14.20;11.00;;;24.60;41.70;;;;;;5013427;28;20416;-63
2021/08/14 09:56:10;;;;;;;10.10;9.20;;;24.60;41.70;;;;;;5012585;28;20476;-64
2021/08/14 09:58:38;;;;;;;12.23;10.43;;;24.60;41.70;;;;;;5013272;28;20436;-64
2021/08/14 10:01:05;;;;;;;12.40;10.73;;;24.60;41.70;;;;;;5013112;28;20460;-64
2021/08/14 10:03:32;;;;;;;11.73;10.57;;;24.60;41.60;;;;;;5013190;28;20416;-64
2021/08/14 10:05:59;;;;;;;11.10;10.10;;;24.60;41.70;;;;;;5012890;28;20467;-64
2021/08/14 10:08:26;;;;;;;13.50;10.30;;;24.60;41.70;;;;;;5013367;28;20415;-64
2021/08/14 10:10:51;;;;;;;11.10;9.97;;;24.60;41.70;;;;;;5013136;28;20511;-64
2021/08/14 10:13:18;;;;;;;11.50;10.33;;;24.60;41.70;;;;;;5013097;28;20924;-63
2021/08/14 10:15:45;;;;;;;11.27;10.27;;;24.60;41.60;;;;;;5012758;28;20231;-64
2021/08/14 10:18:11;;;;;;;11.10;10.00;;;24.60;41.60;;;;;;5012863;28;20430;-64
2021/08/14 10:20:36;;;;;;;12.23;10.70;;;24.60;41.60;;;;;;5012818;28;20551;-64
2021/08/14 10:23:07;;;;;;;10.80;9.57;;;24.60;41.60;;;;;;5011619;28;20588;-64
2021/08/14 10:25:35;;;;;;;10.27;9.27;;;24.60;41.60;;;;;;5012661;28;20177;-62
2021/08/14 10:28:06;;;;;;;11.50;10.50;;;24.60;41.60;;;;;;5012899;28;20428;-63
2021/08/14 10:30:38;;;;;;;10.60;9.60;;;24.60;41.60;;;;;;5012633;28;20420;-63
2021/08/14 10:33:04;;;;;;;11.53;10.27;;;24.60;41.60;;;;;;5012885;28;20503;-63
2021/08/14 10:35:32;;;;;;;10.30;9.40;;;24.60;41.60;;;;;;5012488;28;20469;-63
2021/08/14 10:37:57;;;;;;;10.00;9.10;;;24.60;41.60;;;;;;5012579;28;20439;-63
2021/08/14 10:40:23;;;;;;;10.53;9.63;;;24.60;41.60;;;;;;5012437;28;20413;-63
2021/08/14 10:42:54;;;;;;;11.53;9.70;;;24.60;41.60;;;;;;5012649;28;20184;-63
2021/08/14 10:45:22;;;;;;;10.43;9.53;;;24.70;41.70;;;;;;5012423;28;20170;-63
2021/08/14 10:47:50;;;;;;;10.43;9.40;;;24.60;41.60;;;;;;5012436;28;20433;-63
2021/08/14 10:50:30;;;;;;;10.23;9.33;;;24.60;41.50;;;;;;5012373;28;20404;-63
2021/08/14 10:53:11;;;;;;;10.90;9.90;;;24.60;41.50;;;;;;5012386;28;20948;-63
2021/08/14 10:55:57;;;;;;;11.03;10.00;;;24.70;41.60;;;;;;5012293;28;20535;-63
2021/08/14 10:58:30;;;;;;;11.13;10.13;;;24.60;41.50;;;;;;5012022;28;20523;-63
2021/08/14 11:01:04;;;;;;;10.13;9.33;;;24.70;41.60;;;;;;5012212;28;20564;-63
2021/08/14 11:03:35;;;;;;;11.13;9.80;;;24.60;41.50;;;;;;5012363;28;20502;-64
2021/08/14 11:06:23;;;;;;;10.27;9.47;;;24.60;41.60;;;;;;5011719;28;20903;-62
2021/08/14 11:08:49;;;;;;;10.33;9.33;;;24.60;41.50;;;;;;5011525;28;20486;-63
2021/08/14 11:11:39;;;;;;;10.23;9.30;;;24.60;41.60;;;;;;5012087;28;20491;-63
2021/08/14 11:14:09;;;;;;;9.20;8.50;;;24.60;41.60;;;;;;5012648;28;20173;-63
2021/08/14 11:16:58;;;;;;;9.57;8.60;;;24.60;41.60;;;;;;5012027;28;20868;-63
2021/08/14 11:19:42;;;;;;;11.30;10.30;;;24.60;41.50;;;;;;5012024;28;20906;-63
2021/08/14 11:22:24;;;;;;;10.97;9.97;;;24.60;41.50;;;;;;5011936;28;20466;-63
2021/08/14 11:24:50;;;;;;;10.40;9.50;;;24.60;41.50;;;;;;5011678;28;20412;-63
2021/08/14 11:27:36;;;;;;;9.53;8.73;;;24.60;41.60;;;;;;5011845;28;20930;-63
2021/08/14 11:30:03;;;;;;;11.00;10.10;;;24.60;41.60;;;;;;5011536;28;20436;-63
2021/08/14 11:32:30;;;;;;;10.30;9.30;;;24.60;41.50;;;;;;5011695;28;20407;-65
2021/08/14 11:34:56;;;;;;;8.73;8.03;;;24.60;41.50;;;;;;5011443;28;20907;-63
2021/08/14 11:37:22;;;;;;;11.40;10.50;;;24.60;41.60;;;;;;5011506;28;20439;-66
2021/08/14 11:39:56;;;;;;;10.00;8.97;;;24.60;41.60;;;;;;5011626;28;20408;-63
2021/08/14 11:42:28;;;;;;;9.50;8.80;;;24.60;41.60;;;;;;5010345;28;20220;-63
2021/08/14 11:44:55;;;;;;;9.77;9.07;;;24.60;41.60;;;;;;5011519;28;20412;-63
2021/08/14 11:47:30;;;;;;;9.80;9.00;;;24.60;41.60;;;;;;5011417;28;20430;-63
2021/08/14 11:49:58;;;;;;;10.73;9.83;;;24.60;41.60;;;;;;5011558;28;20412;-63
2021/08/14 11:52:25;;;;;;;9.50;8.70;;;24.60;41.60;;;;;;5011744;28;20408;-63
2021/08/14 11:54:56;;;;;;;10.93;9.80;;;24.60;41.50;;;;;;5011404;28;20416;-63
2021/08/14 11:57:27;;;;;;;9.13;8.33;;;24.60;41.50;;;;;;5011408;28;20535;-63
2021/08/14 11:59:52;;;;;;;10.30;9.50;;;24.60;41.50;;;;;;5011441;28;20507;-63
2021/08/14 12:02:18;;;;;;;10.10;9.20;;;24.60;41.50;;;;;;5011476;28;20540;-64
2021/08/14 12:04:44;;;;;;;10.23;9.33;;;24.60;41.50;;;;;;5011232;28;20546;-63
2021/08/14 12:07:13;;;;;;;9.00;8.30;;;24.60;41.50;;;;;;5011616;28;20193;-64
2021/08/14 12:09:39;;;;;;;9.70;8.90;;;24.60;41.50;;;;;;5011412;28;20419;-64
2021/08/14 12:12:04;;;;;;;9.90;8.90;;;24.60;41.50;;;;;;5011608;28;20416;-63
2021/08/14 12:14:30;;;;;;;10.00;9.10;;;24.60;41.60;;;;;;5011432;28;20416;-64
2021/08/14 12:17:00;;;;;;;9.67;8.80;;;24.60;41.50;;;;;;5011090;28;20194;-64
2021/08/14 12:19:27;;;;;;;10.33;9.53;;;24.60;41.50;;;;;;5013525;28;20181;-64
2021/08/14 12:22:11;;;;;;;9.20;8.50;;;24.60;41.60;;;;;;5014909;28;20499;-63
2021/08/14 12:24:36;;;;;;;9.63;8.70;;;24.60;41.60;;;;;;5014950;28;20518;-64
2021/08/14 12:27:02;;;;;;;9.93;9.10;;;24.60;41.60;;;;;;5014713;28;20859;-63
2021/08/14 12:29:28;;;;;;;8.83;8.23;;;24.60;41.60;;;;;;5015040;28;20548;-64
2021/08/14 12:31:58;;;;;;;9.53;8.80;;;24.60;41.60;;;;;;5014937;28;20550;-64
2021/08/14 12:34:29;;;;;;;9.20;8.30;;;24.60;41.60;;;;;;5015035;28;20181;-64
2021/08/14 12:37:08;;;;;;;9.30;8.60;;;24.60;41.60;;;;;;5014616;28;20427;-64
2021/08/14 12:39:46;;;;;;;9.63;8.73;;;24.60;41.60;;;;;;5014711;28;20444;-64
2021/08/14 12:42:36;;;;;;;10.43;9.60;;;24.60;41.60;;;;;;5014744;28;20506;-64